sensor_id;sensor_type;location;lat;lon;timestamp;pressure;altitude;pressure_sealevel;temperature;humidity
39739;BME280;25422;48.286;8.484;2023-02-24T00:01:21;93620.53;;;1.40;100.00
39739;BME280;25422;48.286;8.484;2023-02-24T00:03:57;93621.09;;;1.43;100.00
39739;BME280;25422;48.286;8.484;2023-02-24T00:06:25;93619.41;;;1.54;100.00
39739;BME280;25422;48.286;8.484;2023-02-24T00:09:01;93615.75;;;1.56;100.00
39739;BME280;25422;48.286;8.484;2023-02-24T00:11:26;93614.78;;;1.57;100.00
39739;BME280;25422;48.286;8.484;2023-02-24T00:13:52;93617.00;;;1.62;100.00
39739;BME280;25422;48.286;8.484;2023-02-24T00:16:17;93614.84;;;1.67;100.00
39739;BME280;25422;48.286;8.484;2023-02-24T00:18:44;93622.94;;;1.62;100.00
39739;BME280;25422;48.286;8.484;2023-02-24T00:21:13;93615.84;;;1.55;100.00
39739;BME280;25422;48.286;8.484;2023-02-24T00:23:39;93609.31;;;1.50;100.00
39739;BME280;25422;48.286;8.484;2023-02-24T00:26:06;93606.19;;;1.47;100.00
39739;BME280;25422;48.286;8.484;2023-02-24T00:28:33;93606.03;;;1.39;100.00
39739;BME280;25422;48.286;8.484;2023-02-24T00:31:12;93608.16;;;1.33;100.00
39739;BME280;25422;48.286;8.484;2023-02-24T00:33:44;93613.81;;;1.27;100.00
39739;BME280;25422;48.286;8.484;2023-02-24T00:36:11;93610.47;;;1.37;100.00
39739;BME280;25422;48.286;8.484;2023-02-24T00:38:39;93608.16;;;1.33;100.00
39739;BME280;25422;48.286;8.484;2023-02-24T00:41:14;93605.88;;;1.40;100.00
39739;BME280;25422;48.286;8.484;2023-02-24T00:43:41;93609.53;;;1.38;100.00
39739;BME280;25422;48.286;8.484;2023-02-24T00:46:12;93601.38;;;1.32;100.00
39739;BME280;25422;48.286;8.484;2023-02-24T00:48:38;93601.81;;;1.38;100.00
39739;BME280;25422;48.286;8.484;2023-02-24T00:51:12;93596.34;;;1.31;100.00
39739;BME280;25422;48.286;8.484;2023-02-24T00:53:38;93587.91;;;1.29;100.00
39739;BME280;25422;48.286;8.484;2023-02-24T00:56:07;93586.16;;;1.29;100.00
39739;BME280;25422;48.286;8.484;2023-02-24T00:58:39;93594.16;;;1.26;100.00
39739;BME280;25422;48.286;8.484;2023-02-24T01:01:14;93593.03;;;1.19;100.00
39739;BME280;25422;48.286;8.484;2023-02-24T01:03:41;93583.66;;;1.18;100.00
39739;BME280;25422;48.286;8.484;2023-02-24T01:06:07;93587.72;;;1.21;100.00
39739;BME280;25422;48.286;8.484;2023-02-24T01:08:33;93577.06;;;1.25;100.00
39739;BME280;25422;48.286;8.484;2023-02-24T01:11:02;93580.44;;;1.26;100.00
39739;BME280;25422;48.286;8.484;2023-02-24T01:13:46;93570.84;;;1.28;100.00
39739;BME280;25422;48.286;8.484;2023-02-24T01:16:12;93571.28;;;1.33;100.00
39739;BME280;25422;48.286;8.484;2023-02-24T01:18:47;93562.56;;;1.34;100.00
39739;BME280;25422;48.286;8.484;2023-02-24T01:21:14;93566.16;;;1.43;100.00
39739;BME280;25422;48.286;8.484;2023-02-24T01:23:41;93570.34;;;1.44;100.00
39739;BME280;25422;48.286;8.484;2023-02-24T01:26:07;93562.06;;;1.40;100.00
39739;BME280;25422;48.286;8.484;2023-02-24T01:28:33;93558.66;;;1.40;100.00
39739;BME280;25422;48.286;8.484;2023-02-24T01:31:00;93557.22;;;1.47;100.00
39739;BME280;25422;48.286;8.484;2023-02-24T01:33:27;93553.94;;;1.45;100.00
39739;BME280;25422;48.286;8.484;2023-02-24T01:35:54;93549.31;;;1.39;100.00
39739;BME280;25422;48.286;8.484;2023-02-24T01:38:20;93550.66;;;1.33;100.00
39739;BME280;25422;48.286;8.484;2023-02-24T01:40:57;93542.78;;;1.34;100.00
39739;BME280;25422;48.286;8.484;2023-02-24T01:43:24;93543.13;;;1.20;100.00
39739;BME280;25422;48.286;8.484;2023-02-24T01:45:49;93543.53;;;1.15;100.00
39739;BME280;25422;48.286;8.484;2023-02-24T01:48:17;93535.47;;;1.09;100.00
39739;BME280;25422;48.286;8.484;2023-02-24T01:50:43;93528.69;;;1.08;100.00
39739;BME280;25422;48.286;8.484;2023-02-24T01:53:10;93526.88;;;0.98;100.00
39739;BME280;25422;48.286;8.484;2023-02-24T01:55:41;93533.50;;;0.91;100.00
39739;BME280;25422;48.286;8.484;2023-02-24T01:58:19;93525.31;;;0.86;100.00
39739;BME280;25422;48.286;8.484;2023-02-24T02:00:46;93511.81;;;0.94;100.00
39739;BME280;25422;48.286;8.484;2023-02-24T02:03:33;93518.22;;;0.99;100.00
39739;BME280;25422;48.286;8.484;2023-02-24T02:06:05;93518.22;;;0.99;100.00
39739;BME280;25422;48.286;8.484;2023-02-24T02:08:32;93514.09;;;0.87;100.00
39739;BME280;25422;48.286;8.484;2023-02-24T02:11:09;93514.88;;;0.88;100.00
39739;BME280;25422;48.286;8.484;2023-02-24T02:13:41;93511.81;;;0.73;100.00
39739;BME280;25422;48.286;8.484;2023-02-24T02:16:35;93504.09;;;0.52;100.00
39739;BME280;25422;48.286;8.484;2023-02-24T02:19:27;93498.94;;;0.30;100.00
39739;BME280;25422;48.286;8.484;2023-02-24T02:27:26;93508.97;;;0.33;100.00
39739;BME280;25422;48.286;8.484;2023-02-24T02:30:17;93518.66;;;0.41;100.00
39739;BME280;25422;48.286;8.484;2023-02-24T02:33:46;93508.38;;;0.41;100.00
39739;BME280;25422;48.286;8.484;2023-02-24T02:36:29;93512.13;;;0.37;100.00
39739;BME280;25422;48.286;8.484;2023-02-24T02:39:11;93505.75;;;0.31;100.00
39739;BME280;25422;48.286;8.484;2023-02-24T02:44:28;93499.75;;;0.10;100.00
39739;BME280;25422;48.286;8.484;2023-02-24T02:47:10;93498.34;;;0.06;100.00
39739;BME280;25422;48.286;8.484;2023-02-24T02:49:43;93498.69;;;0.12;100.00
39739;BME280;25422;48.286;8.484;2023-02-24T02:52:15;93510.22;;;0.18;100.00
39739;BME280;25422;48.286;8.484;2023-02-24T02:55:02;93504.34;;;0.27;100.00
39739;BME280;25422;48.286;8.484;2023-02-24T02:57:33;93499.75;;;0.10;100.00
39739;BME280;25422;48.286;8.484;2023-02-24T03:00:21;93497.91;;;0.22;100.00
39739;BME280;25422;48.286;8.484;2023-02-24T03:02:53;93493.47;;;0.24;100.00
39739;BME280;25422;48.286;8.484;2023-02-24T03:05:26;93490.44;;;0.30;100.00
39739;BME280;25422;48.286;8.484;2023-02-24T03:07:57;93492.22;;;0.18;100.00
39739;BME280;25422;48.286;8.484;2023-02-24T03:10:28;93490.31;;;0.20;100.00
39739;BME280;25422;48.286;8.484;2023-02-24T03:12:58;93490.78;;;0.25;100.00
39739;BME280;25422;48.286;8.484;2023-02-24T03:15:28;93492.69;;;0.23;100.00
39739;BME280;25422;48.286;8.484;2023-02-24T03:18:00;93490.91;;;0.24;100.00
39739;BME280;25422;48.286;8.484;2023-02-24T03:20:34;93487.03;;;0.29;100.00
39739;BME280;25422;48.286;8.484;2023-02-24T03:23:04;93487.59;;;0.33;100.00
39739;BME280;25422;48.286;8.484;2023-02-24T03:25:42;93490.66;;;0.27;100.00
39739;BME280;25422;48.286;8.484;2023-02-24T03:28:21;93493.03;;;0.19;100.00
39739;BME280;25422;48.286;8.484;2023-02-24T03:30:58;93486.63;;;0.13;100.00
39739;BME280;25422;48.286;8.484;2023-02-24T03:33:38;93488.59;;;0.21;100.00
39739;BME280;25422;48.286;8.484;2023-02-24T03:36:05;93483.31;;;0.22;100.00
39739;BME280;25422;48.286;8.484;2023-02-24T03:38:33;93480.38;;;0.27;100.00
39739;BME280;25422;48.286;8.484;2023-02-24T03:41:03;93481.81;;;0.20;100.00
39739;BME280;25422;48.286;8.484;2023-02-24T03:43:32;93478.66;;;0.16;100.00
39739;BME280;25422;48.286;8.484;2023-02-24T03:46:03;93473.50;;;0.16;100.00
39739;BME280;25422;48.286;8.484;2023-02-24T03:48:29;93481.94;;;0.18;100.00
39739;BME280;25422;48.286;8.484;2023-02-24T03:50:57;93470.91;;;0.27;100.00
39739;BME280;25422;48.286;8.484;2023-02-24T03:56:35;93471.66;;;0.18;100.00
39739;BME280;25422;48.286;8.484;2023-02-24T03:59:49;93470.19;;;0.25;100.00
39739;BME280;25422;48.286;8.484;2023-02-24T04:02:28;93471.25;;;0.23;100.00
39739;BME280;25422;48.286;8.484;2023-02-24T04:05:17;93465.19;;;0.24;100.00
39739;BME280;25422;48.286;8.484;2023-02-24T04:08:07;93464.94;;;0.27;100.00
39739;BME280;25422;48.286;8.484;2023-02-24T04:15:52;93463.53;;;0.23;100.00
39739;BME280;25422;48.286;8.484;2023-02-24T04:18:29;93455.34;;;0.29;100.00
39739;BME280;25422;48.286;8.484;2023-02-24T04:20:58;93452.31;;;0.24;100.00
39739;BME280;25422;48.286;8.484;2023-02-24T04:23:29;93452.44;;;0.22;100.00
39739;BME280;25422;48.286;8.484;2023-02-24T04:25:56;93459.78;;;0.27;100.00
39739;BME280;25422;48.286;8.484;2023-02-24T04:28:24;93460.34;;;0.30;100.00
39739;BME280;25422;48.286;8.484;2023-02-24T04:30:54;93454.91;;;0.24;100.00
39739;BME280;25422;48.286;8.484;2023-02-24T04:33:20;93454.09;;;0.23;100.00
39739;BME280;25422;48.286;8.484;2023-02-24T04:35:48;93452.19;;;0.25;100.00
39739;BME280;25422;48.286;8.484;2023-02-24T04:38:18;93454.59;;;0.38;100.00
39739;BME280;25422;48.286;8.484;2023-02-24T04:40:44;93452.19;;;0.25;100.00
39739;BME280;25422;48.286;8.484;2023-02-24T04:43:10;93455.47;;;0.27;100.00
39739;BME280;25422;48.286;8.484;2023-02-24T04:45:35;93451.13;;;0.28;100.00
39739;BME280;25422;48.286;8.484;2023-02-24T04:48:04;93446.91;;;0.27;100.00
39739;BME280;25422;48.286;8.484;2023-02-24T04:50:35;93440.53;;;0.21;100.00
39739;BME280;25422;48.286;8.484;2023-02-24T04:53:03;93441.31;;;0.22;100.00
39739;BME280;25422;48.286;8.484;2023-02-24T04:55:34;93437.88;;;0.32;100.00
39739;BME280;25422;48.286;8.484;2023-02-24T04:58:03;93435.69;;;0.28;100.00
39739;BME280;25422;48.286;8.484;2023-02-24T05:00:29;93424.06;;;0.33;100.00
39739;BME280;25422;48.286;8.484;2023-02-24T05:03:04;93415.03;;;0.39;100.00
39739;BME280;25422;48.286;8.484;2023-02-24T05:05:31;93412.28;;;0.31;100.00
39739;BME280;25422;48.286;8.484;2023-02-24T05:08:08;93407.69;;;0.35;100.00
39739;BME280;25422;48.286;8.484;2023-02-24T05:10:36;93409.03;;;0.29;100.00
39739;BME280;25422;48.286;8.484;2023-02-24T05:13:02;93401.66;;;0.24;100.00
39739;BME280;25422;48.286;8.484;2023-02-24T05:15:29;93404.13;;;0.26;100.00
39739;BME280;25422;48.286;8.484;2023-02-24T05:18:02;93411.47;;;0.30;100.00
39739;BME280;25422;48.286;8.484;2023-02-24T05:20:35;93407.00;;;0.32;100.00
39739;BME280;25422;48.286;8.484;2023-02-24T05:23:24;93412.34;;;0.41;100.00
39739;BME280;25422;48.286;8.484;2023-02-24T05:25:49;93411.03;;;0.46;100.00
39739;BME280;25422;48.286;8.484;2023-02-24T05:28:20;93414.56;;;0.55;100.00
39739;BME280;25422;48.286;8.484;2023-02-24T05:30:48;93410.38;;;0.54;100.00
39739;BME280;25422;48.286;8.484;2023-02-24T05:33:15;93409.06;;;0.60;100.00
39739;BME280;25422;48.286;8.484;2023-02-24T05:35:40;93400.69;;;0.67;100.00
39739;BME280;25422;48.286;8.484;2023-02-24T05:38:06;93405.81;;;0.67;100.00
39739;BME280;25422;48.286;8.484;2023-02-24T05:40:33;93399.06;;;0.66;100.00
39739;BME280;25422;48.286;8.484;2023-02-24T05:42:58;93391.75;;;0.72;100.00
39739;BME280;25422;48.286;8.484;2023-02-24T05:45:29;93384.19;;;0.80;100.00
39739;BME280;25422;48.286;8.484;2023-02-24T05:47:55;93388.69;;;0.88;100.00
39739;BME280;25422;48.286;8.484;2023-02-24T05:50:20;93379.75;;;0.92;100.00
39739;BME280;25422;48.286;8.484;2023-02-24T05:52:51;93383.84;;;0.94;100.00
39739;BME280;25422;48.286;8.484;2023-02-24T05:55:17;93384.13;;;0.91;100.00
39739;BME280;25422;48.286;8.484;2023-02-24T05:57:42;93377.06;;;0.93;100.00
39739;BME280;25422;48.286;8.484;2023-02-24T06:00:09;93384.00;;;1.03;100.00
39739;BME280;25422;48.286;8.484;2023-02-24T06:02:41;93383.72;;;0.96;100.00
39739;BME280;25422;48.286;8.484;2023-02-24T06:05:15;93379.28;;;1.08;100.00
39739;BME280;25422;48.286;8.484;2023-02-24T06:07:54;93381.56;;;1.01;100.00
39739;BME280;25422;48.286;8.484;2023-02-24T06:10:27;93374.50;;;1.03;100.00
39739;BME280;25422;48.286;8.484;2023-02-24T06:12:52;93370.84;;;1.06;100.00
39739;BME280;25422;48.286;8.484;2023-02-24T06:15:18;93366.81;;;1.13;100.00
39739;BME280;25422;48.286;8.484;2023-02-24T06:17:43;93373.34;;;1.17;100.00
39739;BME280;25422;48.286;8.484;2023-02-24T06:20:09;93368.56;;;1.12;100.00
39739;BME280;25422;48.286;8.484;2023-02-24T06:22:40;93369.78;;;1.18;100.00
39739;BME280;25422;48.286;8.484;2023-02-24T06:25:08;93363.84;;;1.17;100.00
39739;BME280;25422;48.286;8.484;2023-02-24T06:27:34;93365.06;;;1.23;100.00
39739;BME280;25422;48.286;8.484;2023-02-24T06:30:04;93358.31;;;1.32;100.00
39739;BME280;25422;48.286;8.484;2023-02-24T06:32:34;93359.38;;;1.29;100.00
39739;BME280;25422;48.286;8.484;2023-02-24T06:35:00;93360.19;;;1.30;100.00
39739;BME280;25422;48.286;8.484;2023-02-24T06:37:26;93360.59;;;1.35;100.00
39739;BME280;25422;48.286;8.484;2023-02-24T06:39:51;93356.53;;;1.42;100.00
39739;BME280;25422;48.286;8.484;2023-02-24T06:42:16;93356.69;;;1.41;100.00
39739;BME280;25422;48.286;8.484;2023-02-24T06:44:42;93360.75;;;1.43;100.00
39739;BME280;25422;48.286;8.484;2023-02-24T06:47:11;93358.31;;;1.51;100.00
39739;BME280;25422;48.286;8.484;2023-02-24T06:49:37;93364.97;;;1.54;100.00
39739;BME280;25422;48.286;8.484;2023-02-24T06:52:02;93363.75;;;1.68;100.00
39739;BME280;25422;48.286;8.484;2023-02-24T06:54:28;93365.25;;;1.71;100.00
39739;BME280;25422;48.286;8.484;2023-02-24T06:56:55;93365.22;;;1.80;100.00
39739;BME280;25422;48.286;8.484;2023-02-24T06:59:23;93374.88;;;1.88;100.00
39739;BME280;25422;48.286;8.484;2023-02-24T07:01:56;93374.72;;;1.90;100.00
39739;BME280;25422;48.286;8.484;2023-02-24T07:04:23;93369.03;;;2.06;100.00
39739;BME280;25422;48.286;8.484;2023-02-24T07:06:56;93370.25;;;1.92;100.00
39739;BME280;25422;48.286;8.484;2023-02-24T07:09:24;93372.16;;;1.80;100.00
39739;BME280;25422;48.286;8.484;2023-02-24T07:11:51;93368.91;;;1.88;100.00
39739;BME280;25422;48.286;8.484;2023-02-24T07:14:22;93374.47;;;1.93;100.00
39739;BME280;25422;48.286;8.484;2023-02-24T07:16:48;93362.78;;;2.08;100.00
39739;BME280;25422;48.286;8.484;2023-02-24T07:19:22;93364.28;;;2.11;100.00
39739;BME280;25422;48.286;8.484;2023-02-24T07:21:48;93363.16;;;2.23;100.00
39739;BME280;25422;48.286;8.484;2023-02-24T07:24:19;93360.41;;;2.34;100.00
39739;BME280;25422;48.286;8.484;2023-02-24T07:26:56;93358.47;;;2.46;100.00
39739;BME280;25422;48.286;8.484;2023-02-24T07:29:27;93355.44;;;2.61;100.00
39739;BME280;25422;48.286;8.484;2023-02-24T07:31:52;93353.13;;;2.67;100.00
39739;BME280;25422;48.286;8.484;2023-02-24T07:34:23;93349.28;;;2.72;100.00
39739;BME280;25422;48.286;8.484;2023-02-24T07:36:53;93342.06;;;2.75;100.00
39739;BME280;25422;48.286;8.484;2023-02-24T07:39:20;93346.63;;;2.91;100.00
39739;BME280;25422;48.286;8.484;2023-02-24T07:41:48;93340.34;;;2.94;100.00
39739;BME280;25422;48.286;8.484;2023-02-24T07:44:16;93347.38;;;3.01;100.00
39739;BME280;25422;48.286;8.484;2023-02-24T07:46:42;93338.88;;;3.19;100.00
39739;BME280;25422;48.286;8.484;2023-02-24T07:49:11;93326.81;;;3.28;100.00
39739;BME280;25422;48.286;8.484;2023-02-24T07:51:37;93329.06;;;3.41;100.00
39739;BME280;25422;48.286;8.484;2023-02-24T07:54:02;93333.63;;;3.47;100.00
39739;BME280;25422;48.286;8.484;2023-02-24T07:56:30;93332.44;;;3.59;100.00
39739;BME280;25422;48.286;8.484;2023-02-24T07:59:01;93326.56;;;3.49;100.00
39739;BME280;25422;48.286;8.484;2023-02-24T08:01:29;93325.16;;;3.54;100.00
39739;BME280;25422;48.286;8.484;2023-02-24T08:04:02;93322.09;;;3.59;100.00
39739;BME280;25422;48.286;8.484;2023-02-24T08:06:34;93316.72;;;3.70;100.00
39739;BME280;25422;48.286;8.484;2023-02-24T08:09:11;93311.69;;;3.87;100.00
39739;BME280;25422;48.286;8.484;2023-02-24T08:11:51;93292.03;;;3.76;100.00
39739;BME280;25422;48.286;8.484;2023-02-24T08:14:27;93289.44;;;4.02;100.00
39739;BME280;25422;48.286;8.484;2023-02-24T08:16:57;93286.91;;;4.11;100.00
39739;BME280;25422;48.286;8.484;2023-02-24T08:19:26;93287.00;;;4.27;100.00
39739;BME280;25422;48.286;8.484;2023-02-24T08:21:57;93287.72;;;4.37;100.00
39739;BME280;25422;48.286;8.484;2023-02-24T08:24:31;93279.59;;;4.32;100.00
39739;BME280;25422;48.286;8.484;2023-02-24T08:26:59;93280.75;;;4.64;100.00
39739;BME280;25422;48.286;8.484;2023-02-24T08:29:34;93281.25;;;5.35;100.00
39739;BME280;25422;48.286;8.484;2023-02-24T08:32:51;93278.84;;;5.34;100.00
39739;BME280;25422;48.286;8.484;2023-02-24T08:35:27;93276.75;;;5.46;100.00
39739;BME280;25422;48.286;8.484;2023-02-24T08:38:01;93268.97;;;5.70;100.00
39739;BME280;25422;48.286;8.484;2023-02-24T08:40:34;93277.41;;;5.97;100.00
39739;BME280;25422;48.286;8.484;2023-02-24T08:48:56;93275.91;;;5.53;100.00
39739;BME280;25422;48.286;8.484;2023-02-24T08:51:30;93272.69;;;5.43;100.00
39739;BME280;25422;48.286;8.484;2023-02-24T08:54:04;93273.78;;;5.24;100.00
39739;BME280;25422;48.286;8.484;2023-02-24T08:56:35;93278.03;;;5.33;100.00
39739;BME280;25422;48.286;8.484;2023-02-24T08:59:08;93263.94;;;5.61;100.00
39739;BME280;25422;48.286;8.484;2023-02-24T09:01:40;93267.34;;;5.86;100.00
39739;BME280;25422;48.286;8.484;2023-02-24T09:04:16;93269.63;;;6.05;100.00
39739;BME280;25422;48.286;8.484;2023-02-24T09:06:46;93274.03;;;6.13;100.00
39739;BME280;25422;48.286;8.484;2023-02-24T09:09:17;93261.19;;;6.12;100.00
39739;BME280;25422;48.286;8.484;2023-02-24T09:11:45;93257.97;;;6.01;100.00
39739;BME280;25422;48.286;8.484;2023-02-24T09:14:13;93260.88;;;6.06;100.00
39739;BME280;25422;48.286;8.484;2023-02-24T09:16:43;93255.97;;;6.28;100.00
39739;BME280;25422;48.286;8.484;2023-02-24T09:19:34;93260.31;;;6.36;100.00
39739;BME280;25422;48.286;8.484;2023-02-24T09:25:24;93243.91;;;6.44;100.00
39739;BME280;25422;48.286;8.484;2023-02-24T09:28:23;93252.75;;;6.66;100.00
39739;BME280;25422;48.286;8.484;2023-02-24T09:30:51;93239.31;;;6.94;100.00
39739;BME280;25422;48.286;8.484;2023-02-24T09:38:37;93233.22;;;7.09;100.00
39739;BME280;25422;48.286;8.484;2023-02-24T09:41:40;93232.16;;;7.50;100.00
39739;BME280;25422;48.286;8.484;2023-02-24T09:44:34;93239.78;;;7.29;100.00
39739;BME280;25422;48.286;8.484;2023-02-24T09:47:24;93240.25;;;7.01;100.00
39739;BME280;25422;48.286;8.484;2023-02-24T09:52:50;93233.66;;;6.90;100.00
39739;BME280;25422;48.286;8.484;2023-02-24T09:56:09;93230.41;;;6.88;100.00
39739;BME280;25422;48.286;8.484;2023-02-24T10:01:34;93227.09;;;6.63;100.00
39739;BME280;25422;48.286;8.484;2023-02-24T10:07:16;93219.59;;;6.76;100.00
39739;BME280;25422;48.286;8.484;2023-02-24T10:09:55;93224.88;;;6.91;100.00
39739;BME280;25422;48.286;8.484;2023-02-24T10:12:43;93213.00;;;7.20;100.00
39739;BME280;25422;48.286;8.484;2023-02-24T10:15:13;93212.38;;;7.64;100.00
39739;BME280;25422;48.286;8.484;2023-02-24T10:17:59;93201.91;;;7.87;100.00
39739;BME280;25422;48.286;8.484;2023-02-24T10:20:39;93206.00;;;8.65;100.00
39739;BME280;25422;48.286;8.484;2023-02-24T10:23:21;93204.91;;;9.25;100.00
39739;BME280;25422;48.286;8.484;2023-02-24T10:26:20;93199.41;;;10.13;100.00
39739;BME280;25422;48.286;8.484;2023-02-24T10:29:04;93201.97;;;9.57;100.00
39739;BME280;25422;48.286;8.484;2023-02-24T10:31:39;93200.06;;;9.07;100.00
39739;BME280;25422;48.286;8.484;2023-02-24T10:34:12;93198.28;;;8.56;100.00
39739;BME280;25422;48.286;8.484;2023-02-24T10:36:44;93196.06;;;8.00;100.00
39739;BME280;25422;48.286;8.484;2023-02-24T10:39:22;93198.44;;;7.57;100.00
39739;BME280;25422;48.286;8.484;2023-02-24T10:41:59;93199.94;;;7.28;100.00
39739;BME280;25422;48.286;8.484;2023-02-24T10:44:41;93200.59;;;7.30;100.00
39739;BME280;25422;48.286;8.484;2023-02-24T10:47:24;93197.97;;;7.53;100.00
39739;BME280;25422;48.286;8.484;2023-02-24T10:49:58;93194.25;;;7.71;100.00
39739;BME280;25422;48.286;8.484;2023-02-24T10:52:41;93183.91;;;8.31;100.00
39739;BME280;25422;48.286;8.484;2023-02-24T10:55:32;93181.22;;;8.54;100.00
39739;BME280;25422;48.286;8.484;2023-02-24T10:58:32;93183.81;;;9.05;100.00
39739;BME280;25422;48.286;8.484;2023-02-24T11:01:26;93170.78;;;9.49;100.00
39739;BME280;25422;48.286;8.484;2023-02-24T11:04:16;93157.22;;;9.38;100.00
39739;BME280;25422;48.286;8.484;2023-02-24T11:07:14;93164.09;;;9.68;100.00
39739;BME280;25422;48.286;8.484;2023-02-24T11:10:04;93155.06;;;9.92;100.00
39739;BME280;25422;48.286;8.484;2023-02-24T11:12:41;93158.84;;;9.39;100.00
39739;BME280;25422;48.286;8.484;2023-02-24T11:15:31;93150.50;;;9.07;100.00
39739;BME280;25422;48.286;8.484;2023-02-24T11:18:20;93164.16;;;8.88;100.00
39739;BME280;25422;48.286;8.484;2023-02-24T11:20:53;93153.88;;;8.65;100.00
39739;BME280;25422;48.286;8.484;2023-02-24T11:23:25;93155.41;;;8.59;100.00
39739;BME280;25422;48.286;8.484;2023-02-24T11:25:57;93133.31;;;9.13;100.00
39739;BME280;25422;48.286;8.484;2023-02-24T11:31:17;93123.69;;;9.92;100.00
39739;BME280;25422;48.286;8.484;2023-02-24T11:36:39;93112.22;;;9.58;100.00
39739;BME280;25422;48.286;8.484;2023-02-24T11:39:34;93111.88;;;8.96;100.00
39739;BME280;25422;48.286;8.484;2023-02-24T11:42:16;93110.88;;;8.75;100.00
39739;BME280;25422;48.286;8.484;2023-02-24T11:44:54;93111.88;;;8.96;100.00
39739;BME280;25422;48.286;8.484;2023-02-24T11:47:41;93101.41;;;9.39;100.00
39739;BME280;25422;48.286;8.484;2023-02-24T11:52:51;93091.03;;;9.74;100.00
39739;BME280;25422;48.286;8.484;2023-02-24T11:55:26;93089.81;;;9.70;100.00
39739;BME280;25422;48.286;8.484;2023-02-24T11:57:54;93086.56;;;9.40;100.00
39739;BME280;25422;48.286;8.484;2023-02-24T12:00:23;93086.88;;;9.87;100.00
39739;BME280;25422;48.286;8.484;2023-02-24T12:02:56;93081.97;;;10.47;100.00
39739;BME280;25422;48.286;8.484;2023-02-24T12:05:33;93070.03;;;9.61;100.00
39739;BME280;25422;48.286;8.484;2023-02-24T12:10:50;93072.78;;;8.59;100.00
39739;BME280;25422;48.286;8.484;2023-02-24T12:13:28;93070.75;;;8.55;100.00
39739;BME280;25422;48.286;8.484;2023-02-24T12:18:57;93064.03;;;8.67;100.00
39739;BME280;25422;48.286;8.484;2023-02-24T12:21:33;93057.41;;;8.65;100.00
39739;BME280;25422;48.286;8.484;2023-02-24T12:24:00;93050.06;;;8.97;100.00
39739;BME280;25422;48.286;8.484;2023-02-24T12:26:36;93044.28;;;9.51;100.00
39739;BME280;25422;48.286;8.484;2023-02-24T12:40:21;93033.59;;;9.46;100.00
39739;BME280;25422;48.286;8.484;2023-02-24T12:43:16;93036.91;;;9.33;100.00
39739;BME280;25422;48.286;8.484;2023-02-24T12:51:01;93039.81;;;8.52;100.00
39739;BME280;25422;48.286;8.484;2023-02-24T12:53:39;93027.59;;;8.74;100.00
39739;BME280;25422;48.286;8.484;2023-02-24T12:59:02;93019.44;;;9.05;100.00
39739;BME280;25422;48.286;8.484;2023-02-24T13:04:10;93021.50;;;8.88;100.00
39739;BME280;25422;48.286;8.484;2023-02-24T13:07:21;93014.63;;;9.02;100.00
39739;BME280;25422;48.286;8.484;2023-02-24T13:10:17;93014.13;;;8.92;100.00
39739;BME280;25422;48.286;8.484;2023-02-24T13:15:54;93003.75;;;8.99;100.00
39739;BME280;25422;48.286;8.484;2023-02-24T13:18:38;93003.69;;;8.70;100.00
39739;BME280;25422;48.286;8.484;2023-02-24T13:23:50;92989.41;;;8.66;100.00
39739;BME280;25422;48.286;8.484;2023-02-24T13:26:22;92976.97;;;8.62;100.00
39739;BME280;25422;48.286;8.484;2023-02-24T13:28:58;92980.84;;;8.94;100.00
39739;BME280;25422;48.286;8.484;2023-02-24T13:31:24;92979.78;;;8.67;100.00
39739;BME280;25422;48.286;8.484;2023-02-24T13:33:50;92969.97;;;8.90;100.00
39739;BME280;25422;48.286;8.484;2023-02-24T13:36:22;92977.31;;;9.08;100.00
39739;BME280;25422;48.286;8.484;2023-02-24T13:39:06;92970.97;;;9.18;100.00
39739;BME280;25422;48.286;8.484;2023-02-24T13:41:36;92967.63;;;8.52;100.00
39739;BME280;25422;48.286;8.484;2023-02-24T13:44:21;92962.50;;;8.59;100.00
39739;BME280;25422;48.286;8.484;2023-02-24T13:46:57;92963.50;;;8.43;100.00
39739;BME280;25422;48.286;8.484;2023-02-24T13:49:57;92960.00;;;8.51;100.00
39739;BME280;25422;48.286;8.484;2023-02-24T13:55:22;92955.09;;;8.04;100.00
39739;BME280;25422;48.286;8.484;2023-02-24T13:58:08;92958.41;;;7.76;100.00
39739;BME280;25422;48.286;8.484;2023-02-24T14:03:20;92954.00;;;7.77;100.00
39739;BME280;25422;48.286;8.484;2023-02-24T14:05:49;92946.63;;;7.81;100.00
39739;BME280;25422;48.286;8.484;2023-02-24T14:08:22;92952.75;;;7.73;100.00
39739;BME280;25422;48.286;8.484;2023-02-24T14:10:54;92946.13;;;7.55;100.00
39739;BME280;25422;48.286;8.484;2023-02-24T14:13:25;92939.25;;;7.48;100.00
39739;BME280;25422;48.286;8.484;2023-02-24T14:15:54;92940.59;;;7.43;100.00
39739;BME280;25422;48.286;8.484;2023-02-24T14:18:28;92935.63;;;7.49;100.00
39739;BME280;25422;48.286;8.484;2023-02-24T14:20:55;92941.38;;;7.59;100.00
39739;BME280;25422;48.286;8.484;2023-02-24T14:25:57;92931.03;;;7.66;100.00
39739;BME280;25422;48.286;8.484;2023-02-24T14:28:28;92927.41;;;7.45;100.00
39739;BME280;25422;48.286;8.484;2023-02-24T14:30:59;92927.56;;;7.43;100.00
39739;BME280;25422;48.286;8.484;2023-02-24T14:33:32;92924.78;;;7.45;100.00
39739;BME280;25422;48.286;8.484;2023-02-24T14:35:59;92919.03;;;7.50;100.00
39739;BME280;25422;48.286;8.484;2023-02-24T14:38:34;92916.78;;;7.47;100.00
39739;BME280;25422;48.286;8.484;2023-02-24T14:41:20;92913.94;;;7.41;100.00
39739;BME280;25422;48.286;8.484;2023-02-24T14:43:47;92918.34;;;7.41;100.00
39739;BME280;25422;48.286;8.484;2023-02-24T14:46:12;92911.97;;;7.43;100.00
39739;BME280;25422;48.286;8.484;2023-02-24T14:48:38;92905.69;;;7.53;100.00
39739;BME280;25422;48.286;8.484;2023-02-24T14:51:14;92908.13;;;7.39;100.00
39739;BME280;25422;48.286;8.484;2023-02-24T14:53:51;92897.84;;;7.38;100.00
39739;BME280;25422;48.286;8.484;2023-02-24T14:56:20;92898.69;;;7.38;100.00
39739;BME280;25422;48.286;8.484;2023-02-24T14:58:51;92896.78;;;7.32;100.00
39739;BME280;25422;48.286;8.484;2023-02-24T15:03:54;92875.25;;;7.53;100.00
39739;BME280;25422;48.286;8.484;2023-02-24T15:06:24;92872.28;;;7.41;100.00